Agios Andreas — SY3521 — position and weather

sailwx.info

Track history (hours):
 
Tides and Currents Weather Stations Pressure Air Temp Water Temp Dewpoint Dewpoint Depression Visibility Wind Speed Wind Dir Waves Ship Positions

Agios Andreas

Last reported at 2018-May-18 19:16 UTC. Time now 2018-Jun-19 22:07 UTC.
Position N 40°51' E 024°19'.
Warning: this ship's position is 32 days out of date.

Length 31 m; draft 3.4 m.

Type: Fishing. MMSI: 240021000.

Date/timePositionNaut miles runAvg speedWind from/ knotsBaromVisibWave heightAir tempDewpointWater temp
2018-May-18 19:16N 40°51' E 024°19'1 4.4
2018-May-18 19:00N 40°50' E 024°20'4 8.5
2018-May-18 18:30N 40°46' E 024°21'4 9.0
2018-May-18 18:00N 40°41' E 024°21'10 0.4
2018-May-17 19:17N 40°51' E 024°19'0 0.0
2018-May-17 18:59N 40°51' E 024°19'3 6.1
2018-May-17 18:30N 40°48' E 024°21'5 9.1
2018-May-17 18:00N 40°44' E 024°20'5 9.3
2018-May-17 17:30N 40°39' E 024°21'9 0.2
2018-May-16 02:42N 40°32' E 024°14'2 8.8
2018-May-16 02:30N 40°33' E 024°16'5 9.1
2018-May-16 02:00N 40°36' E 024°20'4 8.8
2018-May-16 01:30N 40°39' E 024°24'4 8.9
2018-May-16 01:00N 40°42' E 024°28'4 8.6
2018-May-16 00:30N 40°46' E 024°32'4 7.9
2018-May-16 00:00N 40°48' E 024°36'4 7.9
2018-May-15 23:30N 40°51' E 024°40'2 3.4
2018-May-15 23:01N 40°51' E 024°42'0 0.0
2018-May-15 22:28N 40°51' E 024°42'0 0.0
2018-May-15 22:00N 40°51' E 024°42'0 0.0
2018-May-15 21:31N 40°51' E 024°42'0 0.0
2018-May-15 20:49N 40°51' E 024°42'0 0.0
2018-May-15 20:27N 40°51' E 024°42'0 0.0
2018-May-15 19:49N 40°51' E 024°42'0 0.0
2018-May-15 19:30N 40°51' E 024°42'0 0.1
2018-May-15 18:57N 40°51' E 024°42'3 5.6
2018-May-15 18:31N 40°50' E 024°39'5 9.5
2018-May-15 18:01N 40°47' E 024°34'5 9.7
2018-May-15 17:30N 40°43' E 024°30'5 9.9
2018-May-15 17:00N 40°39' E 024°28'5 0.4
2018-May-15 02:14N 40°35' E 024°23'0 0.1
2018-May-15 01:59N 40°35' E 024°23'0 0.0
2018-May-15 01:20N 40°35' E 024°23'0 0.0
2018-May-15 00:53N 40°35' E 024°23'0 0.0
2018-May-15 00:29N 40°35' E 024°23'0 0.0
2018-May-14 23:59N 40°35' E 024°23'0 0.1
2018-May-14 23:29N 40°35' E 024°23'0 0.0
2018-May-14 22:56N 40°35' E 024°23'0 0.0
2018-May-14 22:26N 40°35' E 024°23'0 0.0
2018-May-14 21:56N 40°35' E 024°23'0 0.0
2018-May-14 21:26N 40°35' E 024°23'0 0.0
2018-May-14 20:50N 40°35' E 024°23'0 0.1
2018-May-14 20:26N 40°35' E 024°23'0 0.1
2018-May-14 19:56N 40°35' E 024°23'16 0.8
2018-May-14 00:26N 40°50' E 024°19'0 1.0
2018-May-13 23:59N 40°51' E 024°19'0 0.0
2018-May-13 23:29N 40°51' E 024°19'0 0.0
2018-May-13 22:59N 40°51' E 024°19'0 0.0
2018-May-13 22:29N 40°51' E 024°19'0 0.0
2018-May-13 21:59N 40°51' E 024°19'0 0.0
2018-May-13 21:29N 40°51' E 024°19'0 0.0
2018-May-13 20:59N 40°51' E 024°19'0 0.0
2018-May-13 20:29N 40°51' E 024°19'0 0.0
2018-May-13 19:59N 40°51' E 024°19'0 0.0
2018-May-13 19:26N 40°51' E 024°19'0 0.0
2018-May-13 18:56N 40°51' E 024°19'0 0.0
2018-May-13 18:30N 40°51' E 024°19'4 7.1
2018-May-13 18:00N 40°47' E 024°21'4 8.7
2018-May-13 17:30N 40°43' E 024°21'5 9.2
2018-May-13 17:00N 40°39' E 024°22'5 9.6
2018-May-13 16:31N 40°34' E 024°23'12 0.3
2018-May-12 01:12N 40°45' E 024°19'2 9.3
2018-May-12 01:00N 40°47' E 024°20'4 0.7
2018-May-11 19:41N 40°51' E 024°19'1 4.5
2018-May-11 19:30N 40°50' E 024°20'4 8.5
2018-May-11 19:00N 40°46' E 024°21'4 8.6
2018-May-11 18:30N 40°42' E 024°21'4 8.7
2018-May-11 18:00N 40°37' E 024°22'4 8.5
2018-May-11 17:30N 40°33' E 024°23'18 0.8
2018-May-10 19:38N 40°51' E 024°19'0 2.7
2018-May-10 19:30N 40°51' E 024°19'4 7.6
2018-May-10 19:00N 40°47' E 024°21'4 8.9
2018-May-10 18:30N 40°42' E 024°21'5 9.0
2018-May-10 18:00N 40°38' E 024°23'13 0.6
2018-May-09 20:04N 40°51' E 024°19'0 0.0
2018-May-09 19:58N 40°51' E 024°19'3 5.6
2018-May-09 19:30N 40°49' E 024°22'5 9.3
2018-May-09 19:00N 40°45' E 024°24'5 9.3
2018-May-09 18:30N 40°40' E 024°26'16 0.7
2018-May-08 19:48N 40°51' E 024°42'2 5.5
2018-May-08 19:30N 40°51' E 024°40'  
Track history (hours):
 
Tides and Currents Weather Stations Pressure Air Temp Water Temp Dewpoint Dewpoint Depression Visibility Wind Speed Wind Dir Waves Ship Positions

Agios Andreas

Last reported at 2018-May-18 19:16 UTC. Time now 2018-Jun-19 22:07 UTC.
Position N 40°51' E 024°19'.
Warning: this ship's position is 32 days out of date.

Length 31 m; draft 3.4 m.

Type: Fishing. MMSI: 240021000.

Date/timePositionNaut miles runAvg speedWind from/ knotsBaromVisibWave heightAir tempDewpointWater temp
2018-May-18 19:16N 40°51' E 024°19'1 4.4
2018-May-18 19:00N 40°50' E 024°20'4 8.5
2018-May-18 18:30N 40°46' E 024°21'4 9.0
2018-May-18 18:00N 40°41' E 024°21'10 0.4
2018-May-17 19:17N 40°51' E 024°19'0 0.0
2018-May-17 18:59N 40°51' E 024°19'3 6.1
2018-May-17 18:30N 40°48' E 024°21'5 9.1
2018-May-17 18:00N 40°44' E 024°20'5 9.3
2018-May-17 17:30N 40°39' E 024°21'9 0.2
2018-May-16 02:42N 40°32' E 024°14'2 8.8
2018-May-16 02:30N 40°33' E 024°16'5 9.1
2018-May-16 02:00N 40°36' E 024°20'4 8.8
2018-May-16 01:30N 40°39' E 024°24'4 8.9
2018-May-16 01:00N 40°42' E 024°28'4 8.6
2018-May-16 00:30N 40°46' E 024°32'4 7.9
2018-May-16 00:00N 40°48' E 024°36'4 7.9
2018-May-15 23:30N 40°51' E 024°40'2 3.4
2018-May-15 23:01N 40°51' E 024°42'0 0.0
2018-May-15 22:28N 40°51' E 024°42'0 0.0
2018-May-15 22:00N 40°51' E 024°42'0 0.0
2018-May-15 21:31N 40°51' E 024°42'0 0.0
2018-May-15 20:49N 40°51' E 024°42'0 0.0
2018-May-15 20:27N 40°51' E 024°42'0 0.0
2018-May-15 19:49N 40°51' E 024°42'0 0.0
2018-May-15 19:30N 40°51' E 024°42'0 0.1
2018-May-15 18:57N 40°51' E 024°42'3 5.6
2018-May-15 18:31N 40°50' E 024°39'5 9.5
2018-May-15 18:01N 40°47' E 024°34'5 9.7
2018-May-15 17:30N 40°43' E 024°30'5 9.9
2018-May-15 17:00N 40°39' E 024°28'5 0.4
2018-May-15 02:14N 40°35' E 024°23'0 0.1
2018-May-15 01:59N 40°35' E 024°23'0 0.0
2018-May-15 01:20N 40°35' E 024°23'0 0.0
2018-May-15 00:53N 40°35' E 024°23'0 0.0
2018-May-15 00:29N 40°35' E 024°23'0 0.0
2018-May-14 23:59N 40°35' E 024°23'0 0.1
2018-May-14 23:29N 40°35' E 024°23'0 0.0
2018-May-14 22:56N 40°35' E 024°23'0 0.0
2018-May-14 22:26N 40°35' E 024°23'0 0.0
2018-May-14 21:56N 40°35' E 024°23'0 0.0
2018-May-14 21:26N 40°35' E 024°23'0 0.0
2018-May-14 20:50N 40°35' E 024°23'0 0.1
2018-May-14 20:26N 40°35' E 024°23'0 0.1
2018-May-14 19:56N 40°35' E 024°23'16 0.8
2018-May-14 00:26N 40°50' E 024°19'0 1.0
2018-May-13 23:59N 40°51' E 024°19'0 0.0
2018-May-13 23:29N 40°51' E 024°19'0 0.0
2018-May-13 22:59N 40°51' E 024°19'0 0.0
2018-May-13 22:29N 40°51' E 024°19'0 0.0
2018-May-13 21:59N 40°51' E 024°19'0 0.0
2018-May-13 21:29N 40°51' E 024°19'0 0.0
2018-May-13 20:59N 40°51' E 024°19'0 0.0
2018-May-13 20:29N 40°51' E 024°19'0 0.0
2018-May-13 19:59N 40°51' E 024°19'0 0.0
2018-May-13 19:26N 40°51' E 024°19'0 0.0
2018-May-13 18:56N 40°51' E 024°19'0 0.0
2018-May-13 18:30N 40°51' E 024°19'4 7.1
2018-May-13 18:00N 40°47' E 024°21'4 8.7
2018-May-13 17:30N 40°43' E 024°21'5 9.2
2018-May-13 17:00N 40°39' E 024°22'5 9.6
2018-May-13 16:31N 40°34' E 024°23'12 0.3
2018-May-12 01:12N 40°45' E 024°19'2 9.3
2018-May-12 01:00N 40°47' E 024°20'4 0.7
2018-May-11 19:41N 40°51' E 024°19'1 4.5
2018-May-11 19:30N 40°50' E 024°20'4 8.5
2018-May-11 19:00N 40°46' E 024°21'4 8.6
2018-May-11 18:30N 40°42' E 024°21'4 8.7
2018-May-11 18:00N 40°37' E 024°22'4 8.5
2018-May-11 17:30N 40°33' E 024°23'18 0.8
2018-May-10 19:38N 40°51' E 024°19'0 2.7
2018-May-10 19:30N 40°51' E 024°19'4 7.6
2018-May-10 19:00N 40°47' E 024°21'4 8.9
2018-May-10 18:30N 40°42' E 024°21'5 9.0
2018-May-10 18:00N 40°38' E 024°23'13 0.6
2018-May-09 20:04N 40°51' E 024°19'0 0.0
2018-May-09 19:58N 40°51' E 024°19'3 5.6
2018-May-09 19:30N 40°49' E 024°22'5 9.3
2018-May-09 19:00N 40°45' E 024°24'5 9.3
2018-May-09 18:30N 40°40' E 024°26'16 0.7
2018-May-08 19:48N 40°51' E 024°42'2 5.5
2018-May-08 19:30N 40°51' E 024°40'  

Dump ship's entire track history